This is the latest recevied weather packets stored in our database for station/object JR5YHL-13. If no packets are shown the sender has not sent any weather packets the latest 10 day(s).
| Time | Temp. | Humidity | Pressure | Rain* | Wind** | Luminosity | Snow |
|---|---|---|---|---|---|---|---|
| 1778142109 | 23.33° C | 91% | 1010.9 hPa | 0 mm | - | - | - |
| 1778141511 | 23.33° C | 88% | 1010.9 hPa | 0 mm | - | - | - |
| 1778140913 | 24.44° C | 84% | 1010.8 hPa | 0 mm | - | - | - |
| 1778140315 | 24.44° C | 86% | 1010.8 hPa | 0 mm | - | - | - |
| 1778139718 | 23.33° C | 88% | 1010.9 hPa | 0 mm | - | - | - |
| 1778139120 | 23.89° C | 82% | 1011 hPa | 0 mm | - | - | - |
| 1778138522 | 23.89° C | 81% | 1011 hPa | 0 mm | - | - | - |
| 1778137924 | 24.44° C | 79% | 1010.9 hPa | 0 mm | - | - | - |
| 1778137326 | 24.44° C | 76% | 1010.9 hPa | 0 mm | - | - | - |
| 1778136728 | 25° C | 72% | 1010.8 hPa | 0 mm | - | - | - |
| 1778136130 | 26.11° C | 66% | 1010.8 hPa | 0 mm | - | - | - |
| 1778135532 | 27.22° C | 61% | 1010.8 hPa | 0 mm | - | - | - |
| 1778134934 | 27.22° C | 58% | 1010.8 hPa | 0 mm | - | - | - |
| 1778134336 | 28.33° C | 56% | 1010.8 hPa | 0 mm | - | - | - |
| 1778133739 | 27.22° C | 57% | 1011 hPa | 0 mm | - | - | - |
| 1778133141 | 26.67° C | 58% | 1011 hPa | 0 mm | - | - | - |
| 1778132543 | 27.22° C | 56% | 1011.2 hPa | 0 mm | - | - | - |
| 1778131945 | 28.33° C | 55% | 1011.2 hPa | 0 mm | - | - | - |
| 1778131348 | 27.22° C | 58% | 1011.2 hPa | 0 mm | - | - | - |
| 1778130750 | 27.78° C | 59% | 1011.3 hPa | 0 mm | - | - | - |
| 1778130152 | 26.67° C | 60% | 1011.5 hPa | 0 mm | - | - | - |
| 1778129554 | 28.33° C | 57% | 1011.5 hPa | 0 mm | - | - | - |
| 1778128956 | 28.33° C | 57% | 1011.5 hPa | 0 mm | - | - | - |
| 1778128358 | 28.33° C | 53% | 1011.7 hPa | 0 mm | - | - | - |
| 1778127761 | 29.44° C | 49% | 1011.7 hPa | 0 mm | - | - | - |
* Rain latest hour (hover to see other rain measurements)
** Current wind speed in m/s (hover to see current wind gust speed)